createdAt,value
2023-02-27T00:02:16.180Z,3.92
2023-02-27T00:05:19.612Z,3.05
2023-02-27T00:08:22.852Z,3.17
2023-02-27T00:11:25.152Z,3.20
2023-02-27T00:14:27.739Z,3.45
2023-02-27T00:17:30.675Z,3.42
2023-02-27T00:20:37.949Z,3.78
2023-02-27T00:23:39.990Z,3.17
2023-02-27T00:26:42.250Z,2.95
2023-02-27T00:29:44.266Z,3.17
2023-02-27T00:32:47.192Z,3.85
2023-02-27T00:36:00.085Z,3.45
2023-02-27T00:39:03.053Z,4.63
2023-02-27T00:42:05.066Z,3.88
2023-02-27T00:45:08.038Z,3.28
2023-02-27T00:48:10.284Z,3.67
2023-02-27T00:51:13.409Z,2.90
2023-02-27T00:54:15.554Z,3.38
2023-02-27T00:57:17.810Z,3.25
2023-02-27T01:00:19.950Z,4.07
2023-02-27T01:03:22.111Z,3.30
2023-02-27T01:06:24.233Z,3.88
2023-02-27T01:09:26.264Z,3.28
2023-02-27T01:12:28.429Z,3.90
2023-02-27T01:15:30.507Z,3.50
2023-02-27T01:18:32.472Z,3.55
2023-02-27T01:21:34.733Z,3.67
2023-02-27T01:24:36.790Z,3.38
2023-02-27T01:27:38.787Z,3.28
2023-02-27T01:30:42.074Z,3.60
2023-02-27T01:33:44.160Z,3.85
2023-02-27T01:36:46.194Z,3.78
2023-02-27T01:39:51.172Z,4.28
2023-02-27T01:42:53.115Z,3.38
2023-02-27T01:45:55.655Z,3.88
2023-02-27T01:49:25.935Z,4.03
2023-02-27T01:52:29.368Z,3.75
2023-02-27T01:55:37.983Z,4.13
2023-02-27T01:58:41.784Z,3.80
2023-02-27T02:01:44.043Z,4.18
2023-02-27T02:04:47.005Z,3.13
2023-02-27T02:07:50.408Z,3.78
2023-02-27T02:10:54.637Z,3.33
2023-02-27T02:13:59.170Z,3.58
2023-02-27T02:17:20.081Z,3.63
2023-02-27T02:20:30.826Z,3.53
2023-02-27T02:23:50.742Z,4.50
2023-02-27T02:26:58.376Z,4.22
2023-02-27T02:30:05.965Z,3.10
2023-02-27T02:33:37.998Z,4.87
2023-02-27T02:36:42.977Z,4.22
2023-02-27T02:39:53.759Z,4.53
2023-02-27T02:43:21.389Z,3.67
2023-02-27T02:47:02.124Z,4.20
2023-02-27T02:50:16.127Z,3.72
2023-02-27T02:53:25.059Z,3.58
2023-02-27T02:56:38.004Z,4.00
2023-02-27T03:00:12.880Z,4.05
2023-02-27T03:03:37.022Z,3.45
2023-02-27T03:06:45.180Z,4.07
2023-02-27T03:09:57.538Z,3.47
2023-02-27T03:13:05.452Z,4.80
2023-02-27T03:16:14.740Z,3.65
2023-02-27T03:19:25.683Z,3.65
2023-02-27T03:22:35.677Z,4.53
2023-02-27T03:25:39.164Z,3.22
2023-02-27T03:28:52.478Z,3.65
2023-02-27T03:32:05.074Z,3.80
2023-02-27T03:35:08.130Z,4.10
2023-02-27T03:38:23.082Z,3.40
2023-02-27T03:41:35.238Z,3.80
2023-02-27T03:45:00.726Z,4.50
2023-02-27T03:48:04.312Z,3.60
2023-02-27T03:51:06.421Z,3.88
2023-02-27T03:54:20.910Z,3.28
2023-02-27T03:57:23.025Z,3.92
2023-02-27T04:00:26.804Z,3.78
2023-02-27T04:03:30.613Z,3.40
2023-02-27T04:06:53.057Z,3.13
2023-02-27T04:10:17.761Z,3.80
2023-02-27T04:13:51.918Z,4.20
2023-02-27T04:17:16.501Z,4.00
2023-02-27T04:20:33.933Z,4.30
2023-02-27T04:23:51.196Z,4.13
2023-02-27T04:26:58.999Z,4.03
2023-02-27T04:30:34.555Z,4.43
2023-02-27T04:33:42.358Z,4.63
2023-02-27T04:36:59.502Z,4.20
2023-02-27T04:40:07.948Z,3.83
2023-02-27T04:43:15.021Z,5.70
2023-02-27T04:46:20.613Z,4.35
2023-02-27T04:49:31.483Z,4.40
2023-02-27T04:52:40.899Z,5.55
2023-02-27T04:55:48.138Z,5.53
2023-02-27T04:58:55.274Z,5.55
2023-02-27T05:02:02.128Z,4.90
2023-02-27T05:05:11.162Z,6.15
2023-02-27T05:08:22.881Z,4.90
2023-02-27T05:11:43.926Z,5.95
2023-02-27T05:14:53.005Z,4.78
2023-02-27T05:18:04.621Z,5.05
2023-02-27T05:21:28.339Z,4.93
2023-02-27T05:24:37.365Z,5.65
2023-02-27T05:27:59.360Z,4.60
2023-02-27T05:31:14.614Z,4.38
2023-02-27T05:34:16.652Z,4.50
2023-02-27T05:37:25.463Z,5.35
2023-02-27T05:40:36.288Z,4.95
2023-02-27T05:43:44.522Z,5.88
2023-02-27T05:49:57.367Z,4.60
2023-02-27T05:53:03.968Z,4.30
2023-02-27T05:56:08.575Z,4.43
2023-02-27T05:59:17.689Z,5.00
2023-02-27T06:02:19.953Z,5.50
2023-02-27T06:05:23.178Z,5.07
2023-02-27T06:08:25.765Z,5.20
2023-02-27T06:11:27.773Z,5.75
2023-02-27T06:14:29.871Z,5.60
2023-02-27T06:17:31.862Z,5.10
2023-02-27T06:20:34.506Z,6.53
2023-02-27T06:23:36.514Z,6.03
2023-02-27T06:26:38.442Z,6.63
2023-02-27T06:29:40.644Z,5.95
2023-02-27T06:32:42.969Z,5.82
2023-02-27T06:35:47.635Z,6.28
2023-02-27T06:38:49.686Z,6.53
2023-02-27T06:41:51.828Z,6.18
2023-02-27T06:44:53.984Z,5.93
2023-02-27T06:47:56.033Z,7.25
2023-02-27T06:50:58.288Z,6.38
2023-02-27T06:54:00.181Z,6.25
2023-02-27T06:57:02.157Z,4.72
2023-02-27T07:00:07.269Z,5.25
2023-02-27T07:03:10.269Z,6.53
2023-02-27T07:06:12.729Z,5.53
2023-02-27T07:09:17.036Z,6.63
2023-02-27T07:12:21.193Z,6.03
2023-02-27T07:15:23.386Z,7.32
2023-02-27T07:18:25.765Z,6.60
2023-02-27T07:21:27.894Z,7.32
2023-02-27T07:24:29.847Z,6.63
2023-02-27T07:27:32.965Z,6.60
2023-02-27T07:30:35.032Z,6.05
2023-02-27T07:33:37.251Z,6.97
2023-02-27T07:36:39.509Z,7.93
2023-02-27T07:39:41.589Z,7.05
2023-02-27T07:42:43.869Z,7.72
2023-02-27T07:45:46.664Z,7.72
2023-02-27T07:48:48.721Z,8.75
2023-02-27T07:51:50.982Z,8.60
2023-02-27T07:54:53.061Z,8.55
2023-02-27T07:57:55.115Z,7.45
2023-02-27T08:00:57.208Z,9.00
2023-02-27T08:03:59.168Z,8.32
2023-02-27T08:07:01.135Z,8.77
2023-02-27T08:10:06.693Z,7.88
2023-02-27T08:13:11.109Z,8.57
2023-02-27T08:16:14.819Z,7.53
2023-02-27T08:19:16.857Z,7.63
2023-02-27T08:22:18.848Z,7.05
2023-02-27T08:25:21.631Z,8.30
2023-02-27T08:28:23.827Z,8.25
2023-02-27T08:31:25.999Z,7.45
2023-02-27T08:34:28.524Z,10.35
2023-02-27T08:37:31.022Z,9.85
2023-02-27T08:40:33.097Z,8.63
2023-02-27T08:43:35.106Z,8.10
2023-02-27T08:46:37.138Z,8.25
2023-02-27T08:49:39.090Z,7.60
2023-02-27T08:52:41.347Z,8.27
2023-02-27T08:55:43.842Z,8.20
2023-02-27T08:58:45.815Z,8.85
2023-02-27T09:01:47.963Z,7.93
2023-02-27T09:04:50.022Z,7.53
2023-02-27T09:07:52.168Z,7.25
2023-02-27T09:10:57.770Z,7.95
2023-02-27T09:14:01.160Z,8.15
2023-02-27T09:17:03.671Z,8.23
2023-02-27T09:20:09.437Z,8.15
2023-02-27T09:23:11.839Z,6.70
2023-02-27T09:26:13.918Z,8.10
2023-02-27T09:29:16.107Z,6.93
2023-02-27T09:32:18.332Z,7.97
2023-02-27T09:35:20.880Z,6.80
2023-02-27T09:38:23.066Z,8.98
2023-02-27T09:41:52.674Z,7.78
2023-02-27T09:45:07.651Z,7.63
2023-02-27T09:48:28.863Z,7.88
2023-02-27T09:51:31.312Z,7.40
2023-02-27T09:54:34.446Z,7.38
2023-02-27T09:57:58.499Z,6.35
2023-02-27T10:01:22.153Z,6.68
2023-02-27T10:04:59.277Z,5.85
2023-02-27T10:08:17.121Z,5.55
2023-02-27T10:11:43.702Z,7.50
2023-02-27T10:15:26.887Z,6.30
2023-02-27T10:18:31.079Z,6.60
2023-02-27T10:21:42.290Z,5.88
2023-02-27T10:24:52.064Z,5.07
2023-02-27T10:27:57.250Z,5.55
2023-02-27T10:31:02.284Z,5.13
2023-02-27T10:34:04.504Z,5.65
2023-02-27T10:37:08.008Z,5.18
2023-02-27T10:40:15.444Z,5.32
2023-02-27T10:43:19.356Z,5.88
2023-02-27T10:46:35.505Z,5.25
2023-02-27T10:49:38.732Z,4.97
2023-02-27T10:53:02.448Z,4.75
2023-02-27T10:56:07.441Z,5.00
2023-02-27T10:59:20.518Z,4.75
2023-02-27T11:02:26.714Z,4.95
2023-02-27T11:05:30.375Z,5.10
2023-02-27T11:08:34.214Z,4.30
2023-02-27T11:11:38.176Z,5.93
2023-02-27T11:14:54.919Z,3.90
2023-02-27T11:18:28.760Z,5.13
2023-02-27T11:21:31.406Z,3.72
2023-02-27T11:24:34.344Z,3.88
2023-02-27T11:27:36.699Z,3.72
2023-02-27T11:30:39.799Z,3.58
2023-02-27T11:33:50.957Z,3.08
2023-02-27T11:37:30.934Z,2.67
2023-02-27T11:40:37.421Z,3.28
2023-02-27T11:43:51.204Z,3.22
2023-02-27T11:47:14.018Z,3.55
2023-02-27T11:50:42.010Z,3.40
2023-02-27T11:54:05.724Z,4.10
2023-02-27T11:57:25.746Z,4.07
2023-02-27T12:00:33.962Z,4.63
2023-02-27T12:03:54.690Z,4.35
2023-02-27T12:07:06.042Z,4.30
2023-02-27T12:10:18.198Z,4.53
2023-02-27T12:13:29.308Z,4.40
2023-02-27T12:16:42.472Z,4.78
2023-02-27T12:19:55.943Z,4.40
2023-02-27T12:22:58.464Z,4.03
2023-02-27T12:26:07.842Z,4.30
2023-02-27T12:29:19.307Z,4.40
2023-02-27T12:32:43.178Z,4.60
2023-02-27T12:35:51.041Z,3.80
2023-02-27T12:38:53.706Z,3.85
2023-02-27T12:42:06.029Z,3.38
2023-02-27T12:45:35.178Z,4.47
2023-02-27T12:49:25.341Z,3.42
2023-02-27T12:52:48.812Z,3.47
2023-02-27T12:56:19.020Z,3.33
2023-02-27T12:59:29.810Z,3.60
2023-02-27T13:03:15.253Z,3.95
2023-02-27T13:06:33.399Z,3.72
2023-02-27T13:09:38.016Z,3.30
2023-02-27T13:13:03.982Z,3.28
2023-02-27T13:16:36.513Z,3.88
2023-02-27T13:19:59.919Z,3.63
2023-02-27T13:23:19.991Z,3.53
2023-02-27T13:26:52.141Z,4.00
2023-02-27T13:30:20.879Z,4.03
2023-02-27T13:33:40.811Z,3.73
2023-02-27T13:37:01.547Z,3.55
2023-02-27T13:40:06.033Z,4.07
2023-02-27T13:43:52.208Z,3.72
2023-02-27T13:46:54.607Z,3.35
2023-02-27T13:49:58.871Z,3.20
2023-02-27T13:53:10.190Z,3.65
2023-02-27T13:56:22.424Z,3.88
2023-02-27T13:59:30.138Z,3.13
2023-02-27T14:02:58.198Z,2.80
2023-02-27T14:06:04.309Z,3.67
2023-02-27T14:09:15.354Z,3.40
2023-02-27T14:12:46.140Z,2.88
2023-02-27T14:15:54.384Z,3.40
2023-02-27T14:19:01.217Z,3.92
2023-02-27T14:22:11.981Z,3.78
2023-02-27T14:25:28.998Z,3.72
2023-02-27T14:28:45.570Z,3.72
2023-02-27T14:31:48.734Z,2.97
2023-02-27T14:34:57.693Z,4.68
2023-02-27T14:38:17.137Z,4.88
2023-02-27T14:41:51.764Z,4.53
2023-02-27T14:44:54.728Z,4.00
2023-02-27T14:47:57.748Z,4.15
2023-02-27T14:51:02.465Z,3.95
2023-02-27T14:54:15.116Z,4.20
2023-02-27T14:57:24.234Z,4.10
2023-02-27T15:00:34.174Z,3.60
2023-02-27T15:03:42.136Z,4.18
2023-02-27T15:06:48.030Z,4.70
2023-02-27T15:09:55.417Z,3.67
2023-02-27T15:13:01.020Z,3.55
2023-02-27T15:16:19.101Z,3.47
2023-02-27T15:19:25.752Z,3.08
2023-02-27T15:22:38.829Z,3.88
2023-02-27T15:25:42.921Z,4.28
2023-02-27T15:28:45.237Z,5.05
2023-02-27T15:31:48.215Z,4.75
2023-02-27T15:34:52.578Z,4.97
2023-02-27T15:37:57.441Z,3.97
2023-02-27T15:41:05.074Z,3.65
2023-02-27T15:44:07.633Z,3.73
2023-02-27T15:47:23.039Z,3.20
2023-02-27T15:50:28.677Z,3.65
2023-02-27T15:53:34.203Z,2.95
2023-02-27T15:56:38.978Z,2.95
2023-02-27T15:59:44.337Z,3.35
2023-02-27T16:02:50.377Z,3.55
2023-02-27T16:05:53.938Z,3.75
2023-02-27T16:09:28.666Z,3.08
2023-02-27T16:12:39.914Z,4.30
2023-02-27T16:15:42.093Z,3.60
2023-02-27T16:18:51.324Z,3.25
2023-02-27T16:22:16.326Z,4.18
2023-02-27T16:25:20.499Z,3.78
2023-02-27T16:28:24.016Z,5.32
2023-02-27T16:31:33.789Z,4.18
2023-02-27T16:34:45.551Z,3.95
2023-02-27T16:37:50.558Z,3.75
2023-02-27T16:40:53.842Z,11.10
2023-02-27T16:43:56.352Z,10.95
2023-02-27T16:47:02.237Z,5.35
2023-02-27T16:50:04.865Z,5.13
2023-02-27T16:53:08.134Z,3.63
2023-02-27T16:56:38.392Z,5.03
2023-02-27T16:59:41.228Z,4.55
2023-02-27T17:02:43.347Z,3.45
2023-02-27T17:06:02.482Z,5.00
2023-02-27T17:12:07.766Z,3.88
2023-02-27T17:15:10.521Z,3.83
2023-02-27T17:18:12.624Z,4.50
2023-02-27T17:21:14.691Z,4.63
2023-02-27T17:24:16.854Z,5.30
2023-02-27T17:27:18.845Z,4.97
2023-02-27T17:30:22.715Z,4.25
2023-02-27T17:33:34.049Z,4.45
2023-02-27T17:36:36.502Z,4.15
2023-02-27T17:39:39.241Z,4.22
2023-02-27T17:42:41.501Z,4.00
2023-02-27T17:45:44.201Z,4.65
2023-02-27T17:48:51.045Z,4.55
2023-02-27T17:51:53.130Z,4.80
2023-02-27T17:54:55.859Z,5.32
2023-02-27T17:58:00.028Z,5.20
2023-02-27T18:01:07.134Z,4.78
2023-02-27T18:04:11.527Z,5.13
2023-02-27T18:07:13.907Z,5.68
2023-02-27T18:10:16.388Z,5.32
2023-02-27T18:13:21.961Z,4.97
2023-02-27T18:16:24.269Z,4.85
2023-02-27T18:19:27.096Z,5.25
2023-02-27T18:22:30.086Z,5.40
2023-02-27T18:25:36.407Z,5.50
2023-02-27T18:28:38.445Z,5.70
2023-02-27T18:31:44.916Z,4.63
2023-02-27T18:34:47.166Z,5.88
2023-02-27T18:37:49.258Z,6.13
2023-02-27T18:40:51.314Z,6.03
2023-02-27T18:43:54.149Z,5.75
2023-02-27T18:46:57.714Z,6.28
2023-02-27T18:50:00.174Z,5.47
2023-02-27T18:53:02.398Z,6.00
2023-02-27T18:56:07.570Z,6.80
2023-02-27T18:59:12.195Z,6.90
2023-02-27T19:02:16.827Z,6.53
2023-02-27T19:05:19.385Z,5.68
2023-02-27T19:08:21.534Z,6.35
2023-02-27T19:11:34.050Z,6.68
2023-02-27T19:14:36.545Z,6.80
2023-02-27T19:17:41.702Z,6.43
2023-02-27T19:20:43.973Z,7.28
2023-02-27T19:23:46.046Z,7.20
2023-02-27T19:26:48.931Z,8.40
2023-02-27T19:29:51.565Z,6.72
2023-02-27T19:32:55.054Z,7.32
2023-02-27T19:35:58.606Z,6.60
2023-02-27T19:39:02.081Z,8.13
2023-02-27T19:42:04.134Z,7.45
2023-02-27T19:45:06.989Z,7.32
2023-02-27T19:48:10.419Z,6.07
2023-02-27T19:51:14.629Z,7.57
2023-02-27T19:54:16.747Z,7.78
2023-02-27T19:57:20.525Z,7.03
2023-02-27T20:00:23.205Z,7.03
2023-02-27T20:03:26.170Z,6.82
2023-02-27T20:06:33.235Z,6.47
2023-02-27T20:09:35.326Z,6.75
2023-02-27T20:12:40.330Z,7.15
2023-02-27T20:15:42.438Z,6.53
2023-02-27T20:18:46.239Z,7.30
2023-02-27T20:21:51.297Z,7.43
2023-02-27T20:24:56.694Z,8.05
2023-02-27T20:27:59.025Z,7.18
2023-02-27T20:31:01.548Z,7.60
2023-02-27T20:34:06.224Z,8.25
2023-02-27T20:37:08.457Z,7.88
2023-02-27T20:40:11.113Z,7.55
2023-02-27T20:43:14.245Z,8.25
2023-02-27T20:46:22.032Z,8.07
2023-02-27T20:49:25.050Z,7.10
2023-02-27T20:52:27.460Z,6.80
2023-02-27T20:55:30.070Z,7.78
2023-02-27T20:58:37.271Z,8.38
2023-02-27T21:01:39.793Z,7.53
2023-02-27T21:04:47.460Z,8.80
2023-02-27T21:07:50.148Z,8.30
2023-02-27T21:10:52.998Z,7.55
2023-02-27T21:13:56.788Z,6.80
2023-02-27T21:17:03.726Z,7.55
2023-02-27T21:20:10.851Z,7.55
2023-02-27T21:23:13.012Z,8.20
2023-02-27T21:26:28.108Z,6.88
2023-02-27T21:29:30.333Z,7.10
2023-02-27T21:32:41.486Z,6.95
2023-02-27T21:35:49.740Z,6.88
2023-02-27T21:38:55.737Z,7.60
2023-02-27T21:41:59.731Z,7.93
2023-02-27T21:45:01.856Z,7.00
2023-02-27T21:48:06.140Z,6.68
2023-02-27T21:51:08.143Z,6.63
2023-02-27T21:54:13.645Z,7.00
2023-02-27T21:57:16.927Z,7.50
2023-02-27T22:00:20.128Z,7.35
2023-02-27T22:03:23.860Z,7.10
2023-02-27T22:06:29.289Z,7.47
2023-02-27T22:09:32.022Z,7.35
2023-02-27T22:12:34.146Z,7.05
2023-02-27T22:15:36.535Z,6.40
2023-02-27T22:18:40.671Z,6.80
2023-02-27T22:21:42.891Z,7.32
2023-02-27T22:24:46.115Z,6.93
2023-02-27T22:27:49.233Z,7.45
2023-02-27T22:30:51.256Z,6.90
2023-02-27T22:33:55.684Z,7.68
2023-02-27T22:36:58.173Z,6.97
2023-02-27T22:40:00.241Z,7.60
2023-02-27T22:43:02.275Z,7.13
2023-02-27T22:46:04.758Z,6.93
2023-02-27T22:49:21.915Z,7.75
2023-02-27T22:52:25.517Z,7.32
2023-02-27T22:55:28.730Z,7.30
2023-02-27T22:58:36.055Z,7.28
2023-02-27T23:01:38.728Z,7.20
2023-02-27T23:04:40.795Z,6.75
2023-02-27T23:07:43.865Z,6.53
2023-02-27T23:10:47.002Z,7.88
2023-02-27T23:13:49.940Z,6.70
2023-02-27T23:16:51.995Z,6.45
2023-02-27T23:19:55.184Z,7.65
2023-02-27T23:22:57.555Z,6.72
2023-02-27T23:26:01.965Z,6.93
2023-02-27T23:29:04.862Z,7.00
2023-02-27T23:32:07.144Z,7.00
2023-02-27T23:35:12.710Z,6.97
2023-02-27T23:38:14.762Z,7.97
2023-02-27T23:41:17.981Z,5.82
2023-02-27T23:44:40.270Z,6.80
2023-02-27T23:47:43.228Z,7.38
2023-02-27T23:50:45.377Z,7.60
2023-02-27T23:53:47.925Z,6.82
2023-02-27T23:56:49.915Z,7.43
2023-02-27T23:59:51.906Z,6.72
